Aktualne dane pomiarowe

Uwaga, wersja testowa! Automatyczne pobieranie danych za pomocą narzędzi lub skryptów to umożliwiających jest zabronione.

Dane meteo z obszaru Polski uzyskane na podstawie depesz SYNOP pobieranych co godzinę z NWS. Najedź myszką na symbol przedstawiony w tabeli, aby uzyskać informacje co do jego znaczenia. Prosimy pamiętać, że to testowa wersja strony, która jeszcze nie jest ukończona. Stworzono również jest krótki FAQ dotyczący korzystania z tej podstrony Anomalie temperatury w chwili obecnej odniesione są do okresu referencyjnego 1951-2016. Okres ten będzie później zmieniony na 1981-2010. Kliknij ikonę aby pobrać plik CSV. Kliknij ikonę aby wygenerować mapę synoptyczną dla danego terminu.

Wybierz Datę:    

        

Kłodzko (12520)

Dane terminowe dla wybranej stacji. Kliknij datę, aby otrzymać dane z tego terminu dla wszystkich stacji.

TemperaturaZachmurzenieWiatrCiśnienieOpadyPogoda
 Data t td wb tx tn tg rh  Nt Nl Cl Cm Ch ws wd g1 g2 wx mslp ppp ch 24h 12h t ww ww w1 w2  
2019-07-20 23:00:00 20.0 14.6 16.4--- 7130.0wxwxwxwxwx3wx--31015.0 973.6 -0.2---wx---
2019-07-20 22:00:00 19.4 15.3 16.6--- 7730.0wxwxwxwxwx2wx--21015.5 974.0 0.7---wx---
2019-07-20 21:00:00 19.7 15.6 16.9--- 7730.0wx-wxwx2wx---1015.3 973.9 0.7---------
2019-07-20 20:00:00 21.5 15.8 17.7--- 7035.0wx-wxwx2wx--21015.0 973.8 0.6---------
2019-07-20 19:00:00 22.6 15.9 18.2--- 6640.0wx-wxwx4wx--41014.3 973.3 -0.1---------
2019-07-20 18:00:00 23.8 15.3 18.3 28.5 18.0- 5945.0wxwxwxwxwx3wx--31014.0 973.2 -0.5- 0.012------
2019-07-20 17:00:00 28.2 12.9 18.8--- 3945.0wxwxwxwx2wx--21013.4 973.2 -0.9---------
2019-07-20 16:00:00 28.0 13.9 19.2--- 4245.0wxwxwxwx2wx--21013.7 973.4 -1.0---------
2019-07-20 15:00:00 28.3 12.6 18.7--- 3845.0wxwxwxwx2wx---1013.9 973.7 -0.8---------
2019-07-20 14:00:00 26.9 13.3 18.5--- 4340.0wxwxwxwx4wx--41014.5 974.1 -0.7---------
2019-07-20 13:00:00 27.0 13.0 18.4--- 4240.0wxwxwxwx1wx--11014.8 974.4 -0.7---------
2019-07-20 12:00:00 26.0 14.1 18.5--- 4840.0wxwxwxwx1wx--11015.1 974.5 -0.8- 0.06------
2019-07-20 11:00:00 25.8 15.2 19.0--- 5240.0wxwxwxwxwx2wx--21015.4 974.8 -0.6---------
2019-07-20 10:00:00 24.2 14.6 18.1--- 5535.0wxwxwxwx1wx--11016.0 975.1 -0.2---------
2019-07-20 09:00:00 24.0 14.7 18.0--- 5635.0wxwxwxwx2wx--21016.2 975.3 -0.1---------
2019-07-20 08:00:00 22.1 14.7 17.3--- 6330.0wxwxwxwxwx1wx--11016.6 975.4 0.1---------
2019-07-20 07:00:00 20.0 15.0 16.7--- 7325.0wxwxwxwxwx1wx--11016.8 975.3 0.0---------
2019-07-20 06:00:00 18.2 14.5 15.7 18.2 13.6 12 7925.0wx-wxwx1wx--11017.1 975.4 0.2 0.3-12wx-w1- 6.6
2019-07-20 05:00:00 15.5 14.4 14.7--- 9315.0wx-wxwx1wx---1017.4 975.3 0.1---------
2019-07-20 04:00:00 14.0 13.4 13.5--- 9620.0wx-wxwx0---01017.7 975.3 0.4---------
2019-07-20 03:00:00 14.2 13.6 13.7--- 9615.0wx-wx0---01017.5 975.2 0.1---wx-w1--
2019-07-20 02:00:00 14.0 13.4 13.5--- 9615.0wx-wx1wx--11017.5 975.2 0.2---------
2019-07-20 01:00:00 14.1 13.3 13.5--- 9520.0wx-wxwx1wx--11017.2 974.9 0.0---wx---
2019-07-20 00:00:00 15.1 14.1 14.4--- 9420.0wxwxwxwx2wx--21017.3 975.1 0.3--6wx-w1--
2019-07-19 23:00:00 14.9 14.1 14.3--- 9520.0wx-wx2wx---1017.2 975.0 0.5---------
2019-07-19 22:00:00 14.7 13.7 14.0--- 9420.0wx-wx2wx--21017.1 974.9 0.7---------
2019-07-19 21:00:00 15.8 14.7 15.0--- 9315.0wx-wx2wx--21016.9 974.8 0.7---wx-w1--
2019-07-19 20:00:00 16.5 15.0 15.4--- 9120.0wx-wx2wx--21016.4 974.5 0.4---------
2019-07-19 19:00:00 17.1 16.0 16.3--- 9315.0wx-wx3wx--31016.0 974.2 0.6---wx---
2019-07-19 18:00:00 17.9 16.1 16.6 27.1 15.2- 8920.0wxwxwxwx3wx-1031015.8 974.1 0.6- 0.312wx-w1--
2019-07-19 17:00:00 18.6 14.9 16.1--- 7915.0wxwxwxwx3wx--31015.7 974.1 0.9---wx-w1w2--
2019-07-19 16:00:00 22.1 14.2 17.0--- 6120.0wxwxwx2wx--21014.7 973.6 0.7---wx---
2019-07-19 15:00:00 23.5 12.5 16.7--- 5040.0wxwxwxwx3wx-1031014.4 973.5 0.6---------
2019-07-19 14:00:00 24.1 11.8 16.6--- 4640.0wxwxwxwx3wx--31014.0 973.2 0.4---------
2019-07-19 13:00:00 25.5 9.7 16.3--- 3740.0wxwxwxwx4wx-1041013.5 972.9 0.1---------
2019-07-19 12:00:00 26.2 9.9 16.6--- 3640.0wxwxwxwxwx3wx-931013.4 972.9 -0.1- 0.06------
2019-07-19 11:00:00 26.9 10.6 17.2--- 3640.0wxwxwxwxwx4wx-941013.2 972.8 0.0---------
2019-07-19 10:00:00 25.4 11.9 17.2--- 4340.0wxwxwxwx2---21013.4 972.8 0.0---------
2019-07-19 09:00:00 24.2 13.1 17.3--- 5040.0wxwxwxwxwx1wx--11013.8 973.0 0.2---------
2019-07-19 08:00:00 22.0 13.6 16.7--- 5940.0wxwxwxwxwx1wx--11013.9 972.8 0.1---------
2019-07-19 07:00:00 18.4 12.4 14.6--- 6840.0wxwxwxwxwx1wx--11014.4 972.8 0.1----22----
2019-07-19 06:00:00 15.2 12.0 13.1 22.5 9.4 8 8135.0wxwxwxwxwx1wx--11014.9 972.8 0.1- 0.012-22--- 9.5
2019-07-19 05:00:00 13.0 11.4 11.9--- 9025.0wx-wxwx1wx--11015.1 972.7 0.1----22----
2019-07-19 04:00:00 11.3 10.8 10.9--- 9717.0wx-wxwx1wx--11015.3 972.7 0.2----22----
2019-07-19 03:00:00 9.7 9.1 9.2--- 9612.0wx-wxwx1wx--11015.6 972.7 0.2----22----
2019-07-19 02:00:00 11.4 10.5 10.7--- 9415.0wx-wxwx1wx--11015.2 972.6 0.1----22----
2019-07-19 01:00:00 11.5 10.4 10.7--- 9317.0wx-wx1wx--11015.1 972.5 0.2----22----
2019-07-19 00:00:00 11.9 10.6 11.0--- 9217.0wx-wx2wx--21015.0 972.5 0.3- 0.06-22----
2.3 ms

 

Print Friendly, PDF & Email